Time;durP1;ratioP1;P1;durP2;ratioP2;P2;SDS_P1;SDS_P2;PMS_P1;PMS_P2;Temp;Humidity;BMP_temperature;BMP_pressure;BME280_temperature;BME280_humidity;BME280_pressure;Samples;Min_cycle;Max_cycle;Signal;HPM_P1;HPM_P2
2023/04/28 06:30:38;;;;;;;;;;;6.50;99.90;;;;;;6185695;23;19997;-87
2023/04/28 06:33:04;;;;;;;;;;;6.60;99.90;;;;;;6159516;23;19973;-90
2023/04/28 07:12:04;;;;;;;;;;;7.50;99.90;;;;;;6244822;23;19967;-87
2023/04/28 07:14:29;;;;;;;;;;;7.60;99.90;;;;;;6218822;23;19976;-88
2023/04/28 07:27:10;;;;;;;;;;;7.90;99.90;;;;;;6066695;23;20049;-87
2023/04/28 07:29:41;;;;;;;;;;;7.90;99.90;;;;;;6067472;23;20308;-91
2023/04/28 09:41:42;;;;;;;;;;;9.90;99.90;;;;;;6237288;22;19975;-90
2023/04/28 09:44:20;;;;;;;;;;;10.00;99.90;;;;;;6224742;22;19955;-91
2023/04/28 09:49:47;;;;;;;;;;;10.20;99.90;;;;;;6271662;22;19998;-89
2023/04/28 09:52:13;;;;;;;;;;;10.40;99.90;;;;;;6246847;22;19965;-89
2023/04/28 10:14:20;;;;;;;;;;;12.40;99.90;;;;;;6234821;22;19977;-87
2023/04/28 10:16:56;;;;;;;;;;;;;;;;;;;;;
2023/04/28 10:19:30;;;;;;;;;;;12.50;99.90;;;;;;6216198;23;19974;-88
2023/04/28 10:29:17;;;;;;;;;;;;;;;;;;;;;
2023/04/28 10:32:01;;;;;;;;;;;12.90;99.90;;;;;;6125692;23;19945;-88
2023/04/28 10:34:59;;;;;;;;;;;12.60;99.90;;;;;;6190953;22;19979;-91
2023/04/28 10:37:50;;;;;;;;;;;12.70;99.90;;;;;;6154220;23;19975;-88
2023/04/28 10:46:32;;;;;;;;;;;;;;;;;;;;;
2023/04/28 10:49:16;;;;;;;;;;;12.60;99.90;;;;;;6207843;22;20270;-88
2023/04/28 10:59:02;;;;;;;;;;;12.80;99.90;;;;;;6001022;23;20425;-91
2023/04/28 11:50:51;;;;;;;;;;;12.10;99.90;;;;;;6215220;23;19965;-89
2023/04/28 11:53:42;;;;;;;;;;;12.00;99.90;;;;;;6192053;23;20267;-88
2023/04/28 11:56:08;;;;;;;;;;;12.00;99.90;;;;;;6189320;23;19947;-85
2023/04/28 11:58:37;;;;;;;;;;;12.00;99.90;;;;;;6189962;23;19952;-85
2023/04/28 12:01:09;;;;;;;;;;;11.90;99.90;;;;;;6189519;23;19968;-90
2023/04/28 12:04:12;;;;;;;;;;;11.90;99.90;;;;;;6189126;23;19951;-89
2023/04/28 12:06:57;;;;;;;;;;;11.90;99.90;;;;;;6140356;23;20353;-88
2023/04/28 12:09:32;;;;;;;;;;;11.80;99.90;;;;;;6189257;23;19981;-90
2023/04/28 12:11:59;;;;;;;;;;;11.80;99.90;;;;;;6164743;23;19953;-88
2023/04/28 12:14:25;;;;;;;;;;;11.70;99.90;;;;;;6190539;23;20316;-90
2023/04/28 12:16:51;;;;;;;;;;;11.80;99.90;;;;;;6214708;23;19953;-87
2023/04/28 12:19:35;;;;;;;;;;;11.70;99.90;;;;;;6217673;23;20262;-94
2023/04/28 12:22:37;;;;;;;;;;;11.90;99.90;;;;;;6218232;23;20021;-92
2023/04/28 12:25:07;;;;;;;;;;;11.60;99.90;;;;;;6129250;23;19999;-84
2023/04/28 12:27:33;;;;;;;;;;;11.70;99.90;;;;;;6128639;23;20458;-85
2023/04/28 12:30:01;;;;;;;;;;;11.70;99.90;;;;;;6152974;23;19954;-89
2023/04/28 12:32:48;;;;;;;;;;;11.70;99.90;;;;;;6129368;23;20005;-90
2023/04/28 12:35:14;;;;;;;;;;;11.70;99.90;;;;;;6154237;23;19951;-86
2023/04/28 12:37:52;;;;;;;;;;;11.00;99.90;;;;;;6129738;23;19945;-88
2023/04/28 12:40:25;;;;;;;;;;;11.70;99.90;;;;;;6153791;23;19955;-86
2023/04/28 12:45:29;;;;;;;;;;;11.60;99.90;;;;;;6187557;22;19973;-88
2023/04/28 12:48:07;;;;;;;;;;;11.60;99.90;;;;;;6193210;23;20400;-91
2023/04/28 13:06:57;;;;;;;;;;;;;;;;;;;;;
2023/04/28 13:13:11;;;;;;;;;;;11.30;99.90;;;;;;6277537;22;20131;-87
2023/04/28 13:44:06;;;;;;;;;;;11.30;99.90;;;;;;6036904;23;19947;-90
2023/04/28 13:52:43;;;;;;;;;;;11.10;99.90;;;;;;6147229;22;20043;-90
2023/04/28 13:55:58;;;;;;;;;;;11.00;99.90;;;;;;6276643;22;20354;-87
2023/04/28 13:58:39;;;;;;;;;;;11.10;99.90;;;;;;6128480;23;19994;-87
2023/04/28 14:01:07;;;;;;;;;;;10.90;99.90;;;;;;6127387;23;19966;-87
2023/04/28 14:03:34;;;;;;;;;;;10.90;99.90;;;;;;6127952;23;20009;-84
2023/04/28 14:06:00;;;;;;;;;;;10.90;99.90;;;;;;6103608;23;19991;-85
2023/04/28 14:08:26;;;;;;;;;;;10.90;99.90;;;;;;6128235;23;19945;-84
2023/04/28 14:10:52;;;;;;;;;;;10.80;99.90;;;;;;6127818;23;19996;-84
2023/04/28 14:13:18;;;;;;;;;;;10.80;99.90;;;;;;6152952;23;19953;-84
2023/04/28 14:15:44;;;;;;;;;;;10.90;99.90;;;;;;6103928;23;19942;-85
2023/04/28 14:18:10;;;;;;;;;;;10.80;99.90;;;;;;6152365;23;20009;-84
2023/04/28 14:20:36;;;;;;;;;;;10.70;99.90;;;;;;6152735;23;20320;-85
2023/04/28 14:23:38;;;;;;;;;;;10.70;99.90;;;;;;6151040;23;19948;-87
2023/04/28 14:26:26;;;;;;;;;;;10.50;99.90;;;;;;6152752;23;19945;-86
2023/04/28 14:29:04;;;;;;;;;;;;;;;;;;;;;
2023/04/28 15:30:40;;;;;;;;;;;10.50;99.90;;;;;;6095387;23;19944;-86
2023/04/28 15:33:06;;;;;;;;;;;10.40;99.90;;;;;;6071307;23;20398;-86
2023/04/28 15:35:32;;;;;;;;;;;10.40;99.90;;;;;;6071080;23;20268;-86
2023/04/28 15:37:59;;;;;;;;;;;10.70;99.90;;;;;;6070673;23;20035;-86
2023/04/28 15:40:24;;;;;;;;;;;10.60;99.90;;;;;;6047159;23;20276;-85
2023/04/28 15:42:51;;;;;;;;;;;10.60;99.90;;;;;;6095421;23;19998;-86
2023/04/28 15:45:23;;;;;;;;;;;10.70;99.90;;;;;;6071220;23;20422;-86
2023/04/28 15:47:49;;;;;;;;;;;10.60;99.90;;;;;;6095322;23;19956;-84
2023/04/28 15:50:15;;;;;;;;;;;10.80;99.90;;;;;;6070753;23;20042;-86
2023/04/28 15:52:48;;;;;;;;;;;10.80;99.90;;;;;;6095043;23;19981;-85
2023/04/28 15:55:17;;;;;;;;;;;10.70;99.90;;;;;;6070986;23;19954;-87
2023/04/28 15:57:43;;;;;;;;;;;10.60;99.90;;;;;;6071040;23;19948;-86
2023/04/28 16:00:10;;;;;;;;;;;10.80;99.90;;;;;;6106382;23;20436;-85
2023/04/28 16:02:39;;;;;;;;;;;10.80;99.90;;;;;;6159833;23;19944;-85
2023/04/28 16:05:04;;;;;;;;;;;10.70;99.90;;;;;;6159752;23;20356;-83
2023/04/28 16:07:36;;;;;;;;;;;10.70;99.90;;;;;;6186275;23;19945;-86
2023/04/28 16:10:02;;;;;;;;;;;10.80;99.90;;;;;;6159395;23;19943;-86
2023/04/28 16:12:29;;;;;;;;;;;11.10;99.90;;;;;;6159804;23;19970;-84
2023/04/28 16:14:55;;;;;;;;;;;10.70;99.90;;;;;;6159729;23;19948;-84
2023/04/28 16:17:21;;;;;;;;;;;10.70;99.90;;;;;;6159644;23;19949;-84
2023/04/28 16:19:47;;;;;;;;;;;10.70;99.90;;;;;;6186044;23;20424;-85
2023/04/28 16:22:12;;;;;;;;;;;10.60;99.90;;;;;;6183261;23;19979;-86
2023/04/28 16:24:42;;;;;;;;;;;10.60;99.90;;;;;;6164160;23;19967;-87
2023/04/28 16:27:08;;;;;;;;;;;10.60;99.90;;;;;;6189387;23;20022;-86
2023/04/28 16:29:34;;;;;;;;;;;10.50;99.90;;;;;;6216173;23;20354;-85
2023/04/28 16:32:00;;;;;;;;;;;10.60;99.90;;;;;;6189845;23;19975;-87
2023/04/28 16:34:26;;;;;;;;;;;10.60;99.90;;;;;;6189367;23;19947;-85
2023/04/28 16:36:51;;;;;;;;;;;10.60;99.90;;;;;;6215970;23;19949;-86
2023/04/28 16:39:17;;;;;;;;;;;10.60;99.90;;;;;;6216261;23;19972;-86
2023/04/28 16:41:43;;;;;;;;;;;10.60;99.90;;;;;;6214402;23;19955;-85
2023/04/28 16:44:08;;;;;;;;;;;10.60;99.90;;;;;;6189107;23;19948;-86
2023/04/28 16:46:34;;;;;;;;;;;11.00;99.90;;;;;;6189290;23;19950;-86
2023/04/28 16:49:00;;;;;;;;;;;10.60;99.90;;;;;;6215967;23;20026;-86
2023/04/28 16:51:31;;;;;;;;;;;10.50;99.90;;;;;;6189211;23;19989;-91
2023/04/28 16:53:57;;;;;;;;;;;10.60;99.90;;;;;;6216078;23;20279;-83
2023/04/28 16:56:23;;;;;;;;;;;10.60;99.90;;;;;;6215511;23;19958;-87
2023/04/28 16:58:49;;;;;;;;;;;10.50;99.90;;;;;;6189002;23;20282;-84
2023/04/28 17:01:15;;;;;;;;;;;10.50;99.90;;;;;;6215901;23;19968;-86
2023/04/28 17:03:40;;;;;;;;;;;10.60;99.90;;;;;;6216051;23;19950;-85
2023/04/28 17:06:07;;;;;;;;;;;10.50;99.90;;;;;;6188976;23;19948;-85
2023/04/28 17:08:32;;;;;;;;;;;10.60;99.90;;;;;;6188718;23;20021;-86
2023/04/28 17:11:02;;;;;;;;;;;10.60;99.90;;;;;;6188437;23;19988;-84
2023/04/28 17:13:29;;;;;;;;;;;10.60;99.90;;;;;;6188788;23;20069;-86
2023/04/28 17:15:56;;;;;;;;;;;10.60;99.90;;;;;;6189478;23;19955;-85
2023/04/28 17:18:22;;;;;;;;;;;10.60;99.90;;;;;;6188669;23;20290;-85
2023/04/28 17:20:49;;;;;;;;;;;10.60;99.90;;;;;;6214828;23;19973;-85
2023/04/28 17:23:14;;;;;;;;;;;10.90;99.90;;;;;;6163885;23;19946;-83
2023/04/28 17:25:40;;;;;;;;;;;10.50;99.90;;;;;;6188507;23;20001;-87
2023/04/28 17:28:06;;;;;;;;;;;10.60;99.90;;;;;;6214613;23;19968;-87
2023/04/28 17:30:33;;;;;;;;;;;10.50;99.90;;;;;;6215759;23;19946;-87
2023/04/28 17:33:19;;;;;;;;;;;10.60;99.90;;;;;;6188994;23;20420;-90
2023/04/28 17:35:45;;;;;;;;;;;10.60;99.90;;;;;;6213984;23;20370;-87
2023/04/28 17:38:10;;;;;;;;;;;10.50;99.90;;;;;;6188647;23;20005;-87
2023/04/28 17:40:36;;;;;;;;;;;10.50;99.90;;;;;;6214936;23;19968;-87
2023/04/28 17:43:02;;;;;;;;;;;10.50;99.90;;;;;;6164000;23;19950;-88
2023/04/28 17:45:30;;;;;;;;;;;10.40;99.90;;;;;;6188136;23;19965;-87
2023/04/28 17:47:59;;;;;;;;;;;10.40;99.90;;;;;;6188488;23;19952;-89
2023/04/28 17:50:25;;;;;;;;;;;10.40;99.90;;;;;;6188691;23;20351;-87
2023/04/28 17:53:01;;;;;;;;;;;10.40;99.90;;;;;;6187987;23;20023;-87
2023/04/28 17:55:47;;;;;;;;;;;10.40;99.90;;;;;;6177363;23;19997;-89
2023/04/28 17:58:14;;;;;;;;;;;10.40;99.90;;;;;;6163438;23;20022;-86
2023/04/28 18:00:42;;;;;;;;;;;9.70;99.90;;;;;;6188285;23;19962;-87
2023/04/28 18:03:07;;;;;;;;;;;10.30;99.90;;;;;;6188098;23;19946;-87
2023/04/28 18:05:33;;;;;;;;;;;10.30;99.90;;;;;;6215362;23;19958;-86
2023/04/28 18:08:04;;;;;;;;;;;10.30;99.90;;;;;;6238669;23;20325;-86
2023/04/28 18:10:30;;;;;;;;;;;10.20;99.90;;;;;;6215278;23;19951;-87
2023/04/28 18:12:59;;;;;;;;;;;10.30;99.90;;;;;;6188306;23;19967;-88
2023/04/28 18:15:25;;;;;;;;;;;10.20;99.90;;;;;;6215496;23;19952;-87
2023/04/28 18:17:58;;;;;;;;;;;10.20;99.90;;;;;;6188462;23;20421;-87
2023/04/28 18:20:26;;;;;;;;;;;10.20;99.90;;;;;;6163071;23;19976;-86
2023/04/28 18:22:51;;;;;;;;;;;9.90;99.90;;;;;;6188183;23;19950;-88
2023/04/28 18:25:41;;;;;;;;;;;10.20;99.90;;;;;;6215285;23;19945;-88
2023/04/28 18:28:09;;;;;;;;;;;10.20;99.90;;;;;;6212389;23;19956;-87
2023/04/28 18:33:03;;;;;;;;;;;10.20;99.90;;;;;;6187884;23;20359;-88
2023/04/28 18:35:29;;;;;;;;;;;10.20;99.90;;;;;;6188216;23;19947;-86
2023/04/28 18:37:59;;;;;;;;;;;10.10;99.90;;;;;;6188109;23;20281;-88
2023/04/28 18:40:26;;;;;;;;;;;10.10;99.90;;;;;;6188301;23;20274;-87
2023/04/28 18:42:52;;;;;;;;;;;10.10;99.90;;;;;;6188052;23;19951;-86
2023/04/28 18:45:17;;;;;;;;;;;10.10;99.90;;;;;;6214625;23;20248;-87
2023/04/28 18:47:45;;;;;;;;;;;10.10;99.90;;;;;;6214654;23;20423;-87
2023/04/28 18:50:11;;;;;;;;;;;10.10;99.90;;;;;;6187914;23;19966;-87
2023/04/28 18:52:36;;;;;;;;;;;10.10;99.90;;;;;;6188201;23;19945;-87
2023/04/28 18:55:02;;;;;;;;;;;10.00;99.90;;;;;;6214892;23;20346;-88
2023/04/28 18:57:28;;;;;;;;;;;10.00;99.90;;;;;;6189395;23;20001;-86
2023/04/28 18:59:54;;;;;;;;;;;10.00;99.90;;;;;;6216557;23;20326;-86
2023/04/28 19:02:19;;;;;;;;;;;9.80;99.90;;;;;;6216842;23;19962;-87
2023/04/28 19:04:45;;;;;;;;;;;10.00;99.90;;;;;;6165211;23;19997;-85
2023/04/28 19:07:11;;;;;;;;;;;10.00;99.90;;;;;;6190281;23;20025;-88
2023/04/28 19:09:37;;;;;;;;;;;10.00;99.90;;;;;;6185472;23;20316;-88
2023/04/28 19:12:02;;;;;;;;;;;9.90;99.90;;;;;;6189487;23;20515;-87
2023/04/28 19:14:28;;;;;;;;;;;9.90;99.90;;;;;;6189424;23;20029;-89
2023/04/28 19:16:53;;;;;;;;;;;9.90;99.90;;;;;;6216252;23;20002;-88
2023/04/28 19:19:31;;;;;;;;;;;9.90;99.90;;;;;;6216868;23;19973;-89
2023/04/28 19:21:59;;;;;;;;;;;9.90;99.90;;;;;;6189221;23;20003;-88
2023/04/28 19:31:19;;;;;;;;;;;9.90;99.90;;;;;;6095051;23;19993;-88
2023/04/28 19:34:10;;;;;;;;;;;;;;;;;;;;;
2023/04/28 19:36:43;;;;;;;;;;;9.90;99.90;;;;;;6064969;23;19958;-87
2023/04/28 19:39:23;;;;;;;;;;;9.80;99.90;;;;;;6070581;23;19956;-88
2023/04/28 19:42:42;;;;;;;;;;;;;;;;;;;;;
2023/04/28 19:45:20;;;;;;;;;;;9.90;99.90;;;;;;6089540;23;19955;-89
2023/04/28 19:50:50;;;;;;;;;;;9.80;99.90;;;;;;6008103;23;19951;-88
2023/04/28 19:53:24;;;;;;;;;;;9.70;99.90;;;;;;6009252;23;20355;-89
2023/04/28 19:56:01;;;;;;;;;;;9.30;99.90;;;;;;5985659;23;19953;-89
2023/04/28 20:02:07;;;;;;;;;;;9.90;99.90;;;;;;6037837;23;19950;-90
2023/04/28 20:04:50;;;;;;;;;;;9.70;99.90;;;;;;6037603;23;19975;-88
2023/04/28 20:11:19;;;;;;;;;;;;;;;;;;;;;
2023/04/28 20:17:17;;;;;;;;;;;9.70;99.90;;;;;;5981097;24;20317;-87
2023/04/28 20:19:55;;;;;;;;;;;9.70;99.90;;;;;;5098684;22;2066451;-87
2023/04/28 20:35:21;;;;;;;;;;;9.60;99.90;;;;;;4970043;23;19966;-87
2023/04/28 20:38:10;;;;;;;;;;;9.70;99.90;;;;;;5076275;28;20402;-90
2023/04/28 20:43:40;;;;;;;;;;;9.60;99.90;;;;;;5072068;28;20096;-87
2023/04/28 20:46:34;;;;;;;;;;;9.80;99.90;;;;;;5066955;28;19955;-87
2023/04/28 20:49:15;;;;;;;;;;;;;;;;;;;;;
2023/04/28 20:54:34;;;;;;;;;;;9.70;99.90;;;;;;5012614;28;19956;-88
2023/04/28 20:57:09;;;;;;;;;;;9.30;99.90;;;;;;5021595;28;20028;-88
2023/04/28 20:59:37;;;;;;;;;;;9.60;99.90;;;;;;5036086;28;19971;-88
2023/04/28 21:02:05;;;;;;;;;;;9.50;99.90;;;;;;5018419;28;20004;-87
2023/04/28 21:04:36;;;;;;;;;;;9.60;99.90;;;;;;5034231;28;20051;-88
2023/04/28 21:09:48;;;;;;;;;;;9.50;99.90;;;;;;5035957;28;19961;-88
2023/04/28 21:12:18;;;;;;;;;;;9.20;99.90;;;;;;5037720;28;19948;-87
2023/04/28 21:14:44;;;;;;;;;;;9.40;99.90;;;;;;5036711;28;20046;-87
2023/04/28 21:17:09;;;;;;;;;;;9.90;99.90;;;;;;5019567;28;20046;-87
2023/04/28 21:19:37;;;;;;;;;;;8.90;99.90;;;;;;5004661;28;19978;-88
2023/04/28 21:22:06;;;;;;;;;;;9.20;99.90;;;;;;5013529;28;19958;-87
2023/04/28 21:24:34;;;;;;;;;;;9.30;99.90;;;;;;5037468;28;20235;-87
2023/04/28 21:27:03;;;;;;;;;;;10.10;99.90;;;;;;5035310;28;20049;-88
2023/04/28 21:29:34;;;;;;;;;;;9.30;99.90;;;;;;5014633;28;20448;-87
2023/04/28 21:32:02;;;;;;;;;;;9.30;99.90;;;;;;5033658;28;19956;-87
2023/04/28 21:34:28;;;;;;;;;;;9.30;99.90;;;;;;5044731;28;20015;-88
2023/04/28 21:36:54;;;;;;;;;;;9.10;99.90;;;;;;5028112;28;20425;-87
2023/04/28 21:39:20;;;;;;;;;;;9.30;99.90;;;;;;5045681;28;19978;-87
2023/04/28 21:41:46;;;;;;;;;;;9.30;99.90;;;;;;5031777;28;20349;-87
2023/04/28 21:44:11;;;;;;;;;;;9.20;99.90;;;;;;5028292;28;19965;-87
2023/04/28 21:46:39;;;;;;;;;;;9.20;99.90;;;;;;5036713;28;19945;-87
2023/04/28 21:49:05;;;;;;;;;;;8.90;99.90;;;;;;5037024;28;20043;-87
2023/04/28 21:51:31;;;;;;;;;;;8.70;99.90;;;;;;5036266;28;20430;-87
2023/04/28 21:53:57;;;;;;;;;;;9.00;99.90;;;;;;5036891;28;20002;-87
2023/04/28 21:56:22;;;;;;;;;;;9.00;99.90;;;;;;5036303;28;20041;-89
2023/04/28 21:58:48;;;;;;;;;;;9.20;99.90;;;;;;5036348;28;20018;-87
2023/04/28 22:01:16;;;;;;;;;;;9.20;99.90;;;;;;5035823;28;20416;-87
2023/04/28 22:03:43;;;;;;;;;;;9.20;99.90;;;;;;5035892;28;20000;-86
2023/04/28 22:06:09;;;;;;;;;;;9.60;99.90;;;;;;5033045;28;20005;-87
2023/04/28 22:08:35;;;;;;;;;;;9.20;99.90;;;;;;5032727;28;20008;-87
2023/04/28 22:11:01;;;;;;;;;;;9.20;99.90;;;;;;5036561;28;19952;-87
2023/04/28 22:13:27;;;;;;;;;;;9.40;99.90;;;;;;5023771;28;20335;-87
2023/04/28 22:15:52;;;;;;;;;;;8.80;99.90;;;;;;5019490;28;19949;-86
2023/04/28 22:18:19;;;;;;;;;;;9.20;99.90;;;;;;5053720;28;19971;-87
2023/04/28 22:20:44;;;;;;;;;;;9.20;99.90;;;;;;5053497;28;19953;-87
2023/04/28 22:23:13;;;;;;;;;;;9.20;99.90;;;;;;5012494;28;20314;-87
2023/04/28 22:25:38;;;;;;;;;;;9.10;99.90;;;;;;5035486;28;19945;-87
2023/04/28 22:28:04;;;;;;;;;;;9.50;99.90;;;;;;5045184;28;20313;-87
2023/04/28 22:30:30;;;;;;;;;;;9.90;99.90;;;;;;5035904;28;19945;-87
2023/04/28 22:32:56;;;;;;;;;;;9.10;99.90;;;;;;5034799;28;20372;-87
2023/04/28 22:35:22;;;;;;;;;;;9.10;99.90;;;;;;5035692;28;20027;-87
2023/04/28 22:37:48;;;;;;;;;;;9.10;99.90;;;;;;5035805;28;20483;-87
2023/04/28 22:40:13;;;;;;;;;;;8.90;99.90;;;;;;5035350;28;19962;-87
2023/04/28 22:42:40;;;;;;;;;;;9.10;99.90;;;;;;5046818;28;20059;-87
2023/04/28 22:45:06;;;;;;;;;;;9.10;99.90;;;;;;5009962;28;19952;-86
2023/04/28 22:47:32;;;;;;;;;;;9.10;99.90;;;;;;5008283;28;19956;-87
2023/04/28 22:49:58;;;;;;;;;;;9.10;99.90;;;;;;5027867;28;19952;-87
2023/04/28 22:52:24;;;;;;;;;;;9.10;99.90;;;;;;5042607;28;19949;-87
2023/04/28 22:55:03;;;;;;;;;;;9.00;99.90;;;;;;5023982;28;19962;-88
2023/04/28 22:57:35;;;;;;;;;;;9.10;99.90;;;;;;5042298;28;19953;-88
2023/04/28 23:00:04;;;;;;;;;;;9.00;99.90;;;;;;5024162;28;19953;-87
2023/04/28 23:02:32;;;;;;;;;;;9.10;99.90;;;;;;5031003;28;19950;-88
2023/04/28 23:05:01;;;;;;;;;;;9.10;99.90;;;;;;5007869;28;19953;-88
2023/04/28 23:07:37;;;;;;;;;;;9.00;99.90;;;;;;5026072;28;20045;-87
2023/04/28 23:10:27;;;;;;;;;;;9.00;99.90;;;;;;5027314;28;19996;-88
2023/04/28 23:12:54;;;;;;;;;;;9.00;99.90;;;;;;5028895;28;19981;-87
2023/04/28 23:15:35;;;;;;;;;;;9.00;99.90;;;;;;5013207;28;20048;-88
2023/04/28 23:18:11;;;;;;;;;;;9.00;99.90;;;;;;5044765;28;20029;-88
2023/04/28 23:21:00;;;;;;;;;;;9.40;99.90;;;;;;5024933;28;20099;-89
2023/04/28 23:23:38;;;;;;;;;;;8.90;99.90;;;;;;5025691;28;19958;-88
2023/04/28 23:26:22;;;;;;;;;;;;;;;;;;;;;
2023/04/28 23:29:02;;;;;;;;;;;9.00;99.90;;;;;;5028013;28;19951;-88
2023/04/28 23:31:38;;;;;;;;;;;9.00;99.90;;;;;;5025129;28;19956;-89
2023/04/28 23:34:18;;;;;;;;;;;9.30;99.90;;;;;;5010652;28;19998;-88
2023/04/28 23:36:46;;;;;;;;;;;9.00;99.90;;;;;;5040363;28;19990;-88
2023/04/28 23:39:15;;;;;;;;;;;8.90;99.90;;;;;;5007373;28;20028;-88
2023/04/28 23:41:47;;;;;;;;;;;8.80;99.90;;;;;;5033257;28;20333;-88
2023/04/28 23:44:31;;;;;;;;;;;8.90;99.90;;;;;;5025965;28;19959;-88
2023/04/28 23:47:02;;;;;;;;;;;8.80;99.90;;;;;;5048987;28;19958;-87
2023/04/28 23:49:28;;;;;;;;;;;8.60;99.90;;;;;;5043014;28;19955;-88
2023/04/28 23:51:59;;;;;;;;;;;8.60;99.90;;;;;;5045547;28;19949;-87
2023/04/28 23:54:27;;;;;;;;;;;8.90;99.90;;;;;;5045588;28;19960;-87
2023/04/28 23:56:53;;;;;;;;;;;8.90;99.90;;;;;;5060837;28;19960;-88
2023/04/28 23:59:21;;;;;;;;;;;8.80;99.90;;;;;;5042767;28;20340;-87
